Time;durP1;ratioP1;P1;durP2;ratioP2;P2;SDS_P1;SDS_P2;PMS_P1;PMS_P2;Temp;Humidity;BMP_temperature;BMP_pressure;BME280_temperature;BME280_humidity;BME280_pressure;Samples;Min_cycle;Max_cycle;Signal;HPM_P1;HPM_P2
2022/12/04 17:07:41;;;;;;;35.22;17.02;;;;;;;2.04;100.00;101517.63;5108571;27;20355;-68
2022/12/04 17:10:07;;;;;;;30.52;18.52;;;;;;;2.04;100.00;101514.97;5110188;28;20364;-68
2022/12/04 17:12:32;;;;;;;29.02;19.55;;;;;;;2.03;100.00;101515.97;5097457;28;20028;-70
2022/12/04 17:14:57;;;;;;;30.13;18.90;;;;;;;2.02;100.00;101511.63;5097516;28;20038;-67
2022/12/04 17:17:22;;;;;;;30.42;19.25;;;;;;;2.04;100.00;101515.84;5110435;28;20032;-69
2022/12/04 17:19:48;;;;;;;31.25;19.15;;;;;;;2.06;100.00;101518.34;5109925;28;20032;-66
2022/12/04 17:22:13;;;;;;;31.77;19.45;;;;;;;2.05;100.00;101517.47;5098464;28;20085;-67
2022/12/04 17:24:38;;;;;;;31.27;20.38;;;;;;;2.08;100.00;101513.69;5082761;28;20032;-69
2022/12/04 17:27:05;;;;;;;32.13;21.50;;;;;;;2.10;100.00;101519.72;5109515;28;20092;-68
2022/12/04 17:29:30;;;;;;;30.80;19.52;;;;;;;2.15;100.00;101520.09;5109639;28;20028;-70
2022/12/04 17:31:55;;;;;;;33.75;21.83;;;;;;;2.15;100.00;101517.41;5105455;28;20991;-69
2022/12/04 17:34:21;;;;;;;31.45;19.58;;;;;;;2.17;100.00;101519.94;5086037;28;20036;-69
2022/12/04 17:36:46;;;;;;;31.05;20.60;;;;;;;2.16;100.00;101520.91;5088968;28;20028;-69
2022/12/04 17:39:12;;;;;;;31.45;21.02;;;;;;;2.18;100.00;101530.47;5126659;27;20035;-69
2022/12/04 17:41:37;;;;;;;31.98;21.13;;;;;;;2.22;100.00;101531.84;5073383;28;20029;-68
2022/12/04 17:44:03;;;;;;;31.35;20.27;;;;;;;2.23;100.00;101535.34;5086365;28;20124;-69
2022/12/04 17:46:28;;;;;;;36.65;23.25;;;;;;;2.23;100.00;101538.03;5077760;28;20032;-70
2022/12/04 17:48:55;;;;;;;31.83;21.00;;;;;;;2.22;100.00;101537.19;5086057;28;20025;-68
2022/12/04 17:51:22;;;;;;;37.03;26.88;;;;;;;2.22;100.00;101547.88;5087300;28;20028;-70
2022/12/04 17:53:48;;;;;;;33.50;21.65;;;;;;;2.24;100.00;101555.72;5085787;28;20024;-69
2022/12/04 17:56:20;;;;;;;30.15;21.10;;;;;;;2.27;100.00;101556.25;5089011;28;20407;-68
2022/12/04 17:58:45;;;;;;;34.90;21.23;;;;;;;2.30;100.00;101553.28;5090325;28;20492;-69
2022/12/04 18:01:14;;;;;;;31.95;21.92;;;;;;;2.34;100.00;101552.97;5072586;28;20067;-68
2022/12/04 18:03:40;;;;;;;33.55;22.17;;;;;;;2.34;100.00;101539.59;5084192;28;20078;-68
2022/12/04 18:06:18;;;;;;;31.45;21.02;;;;;;;2.35;100.00;101546.63;5089778;28;20059;-70
2022/12/04 18:08:43;;;;;;;33.58;22.52;;;;;;;2.35;100.00;101546.63;5090159;28;20043;-70
2022/12/04 18:11:09;;;;;;;32.60;21.88;;;;;;;2.38;100.00;101546.34;5088776;28;20406;-71
2022/12/04 18:13:35;;;;;;;34.25;22.38;;;;;;;2.40;100.00;101545.19;5081079;28;20025;-69
2022/12/04 18:16:02;;;;;;;34.13;22.95;;;;;;;2.39;100.00;101548.84;5088206;28;20035;-71
2022/12/04 18:18:29;;;;;;;34.95;23.15;;;;;;;2.40;100.00;101549.69;5071702;28;20055;-70
2022/12/04 18:21:09;;;;;;;37.63;23.80;;;;;;;2.40;100.00;101545.19;5064726;28;20081;-68
2022/12/04 18:23:37;;;;;;;34.85;23.02;;;;;;;2.41;100.00;101540.69;5068720;28;20039;-71
2022/12/04 18:26:03;;;;;;;40.33;25.63;;;;;;;2.37;100.00;101544.66;5061587;28;20028;-72
2022/12/04 18:28:30;;;;;;;38.70;24.40;;;;;;;2.37;100.00;101528.63;5071769;28;20051;-68
2022/12/04 18:31:00;;;;;;;40.05;25.45;;;;;;;2.36;100.00;101532.31;5055264;28;20071;-68
2022/12/04 18:33:29;;;;;;;40.90;24.83;;;;;;;2.34;100.00;101537.78;5054954;28;20089;-68
2022/12/04 18:35:55;;;;;;;39.92;23.95;;;;;;;2.28;100.00;101530.38;5057574;28;20036;-68
2022/12/04 18:38:22;;;;;;;40.05;24.48;;;;;;;2.25;100.00;101533.34;5055122;28;20039;-68
2022/12/04 18:40:49;;;;;;;39.60;23.90;;;;;;;2.23;100.00;101533.50;5074876;28;20025;-68
2022/12/04 18:43:15;;;;;;;39.42;22.75;;;;;;;2.23;100.00;101533.50;5074740;28;20029;-68
2022/12/04 18:45:43;;;;;;;38.40;25.05;;;;;;;2.23;100.00;101522.81;5074858;28;20459;-69
2022/12/04 18:48:15;;;;;;;37.72;23.50;;;;;;;2.21;100.00;101524.81;5075707;28;20371;-68
2022/12/04 18:50:42;;;;;;;41.03;25.15;;;;;;;2.22;100.00;101531.00;5095127;28;20028;-69
2022/12/04 18:53:08;;;;;;;42.00;25.00;;;;;;;2.21;100.00;101530.16;5094904;28;20024;-71
2022/12/04 18:55:35;;;;;;;40.22;24.23;;;;;;;2.18;100.00;101535.81;5091192;28;20071;-71
2022/12/04 18:58:00;;;;;;;40.25;23.67;;;;;;;2.18;100.00;101526.97;5073507;28;20036;-70
2022/12/04 19:00:25;;;;;;;40.10;24.38;;;;;;;2.20;100.00;101533.81;5073389;28;20029;-71
2022/12/04 19:02:51;;;;;;;41.88;24.08;;;;;;;2.17;100.00;101526.09;5068823;28;20036;-71
2022/12/04 19:05:17;;;;;;;41.10;24.13;;;;;;;2.19;100.00;101521.47;5072126;28;20356;-70
2022/12/04 19:07:42;;;;;;;38.33;22.88;;;;;;;2.22;100.00;101526.50;5065756;28;20047;-69
2022/12/04 19:10:08;;;;;;;37.03;22.83;;;;;;;2.19;100.00;101534.81;5054352;28;20029;-71
2022/12/04 19:12:33;;;;;;;37.17;23.08;;;;;;;2.18;100.00;101537.66;5079583;28;20100;-70
2022/12/04 19:14:58;;;;;;;39.50;22.90;;;;;;;2.17;100.00;101527.94;5090999;28;20028;-69
2022/12/04 19:17:23;;;;;;;36.08;22.23;;;;;;;2.18;100.00;101533.13;5073864;28;20030;-69
2022/12/04 19:19:49;;;;;;;40.55;23.33;;;;;;;2.19;100.00;101539.31;5074356;28;20513;-69
2022/12/04 19:22:14;;;;;;;37.13;21.77;;;;;;;2.20;100.00;101530.31;5069037;28;20029;-69
2022/12/04 19:24:39;;;;;;;36.22;21.10;;;;;;;2.21;100.00;101540.84;5059073;28;20040;-69
2022/12/04 19:27:14;;;;;;;37.35;22.20;;;;;;;2.22;100.00;101541.66;5082930;28;20028;-69
2022/12/04 19:29:41;;;;;;;37.30;21.15;;;;;;;2.21;100.00;101540.00;5077833;28;20119;-68
2022/12/04 19:32:08;;;;;;;38.85;22.42;;;;;;;2.19;100.00;101534.81;5068228;28;20392;-68
2022/12/04 19:34:34;;;;;;;36.22;22.05;;;;;;;2.21;100.00;101546.19;5067768;28;20040;-69
2022/12/04 19:37:00;;;;;;;39.28;22.15;;;;;;;2.23;100.00;101548.69;5070820;28;20090;-68
2022/12/04 19:39:25;;;;;;;37.30;21.30;;;;;;;2.23;100.00;101546.84;5071716;28;20464;-68
2022/12/04 19:41:51;;;;;;;38.08;21.60;;;;;;;2.25;100.00;101544.91;5063190;28;20471;-68
2022/12/04 19:44:18;;;;;;;33.78;20.50;;;;;;;2.26;100.00;101533.19;5062152;28;20032;-67
2022/12/04 19:46:43;;;;;;;37.08;22.20;;;;;;;2.26;100.00;101541.22;5071653;28;20020;-68
2022/12/04 19:49:10;;;;;;;36.35;21.58;;;;;;;2.27;100.00;101537.56;5078465;28;20085;-68
2022/12/04 19:51:37;;;;;;;33.65;21.02;;;;;;;2.27;100.00;101548.25;5092152;28;20036;-67
2022/12/04 19:54:04;;;;;;;37.25;21.60;;;;;;;2.28;100.00;101547.25;5093816;28;20032;-67
2022/12/04 19:56:31;;;;;;;33.22;20.98;;;;;;;2.28;100.00;101547.25;5084193;28;20479;-67
2022/12/04 19:58:58;;;;;;;32.97;19.42;;;;;;;2.28;100.00;101547.25;5084253;28;20036;-70
2022/12/04 20:01:29;;;;;;;34.10;20.92;;;;;;;2.29;100.00;101558.75;5101097;28;20084;-66
2022/12/04 20:03:55;;;;;;;35.70;21.40;;;;;;;2.26;100.00;101554.56;5116217;28;20050;-67
2022/12/04 20:06:23;;;;;;;35.00;20.52;;;;;;;2.26;100.00;101559.91;5089591;28;20056;-65
2022/12/04 20:09:00;;;;;;;35.75;19.60;;;;;;;2.28;100.00;101546.41;5074368;28;20377;-67
2022/12/04 20:11:27;;;;;;;38.13;20.65;;;;;;;2.28;100.00;101547.25;5073508;28;20188;-68
2022/12/04 20:13:54;;;;;;;36.85;21.17;;;;;;;2.30;100.00;101545.25;5076595;28;20123;-67
2022/12/04 20:16:21;;;;;;;35.75;21.15;;;;;;;2.29;100.00;101540.94;5071056;28;20103;-68
2022/12/04 20:18:46;;;;;;;33.95;20.55;;;;;;;2.33;100.00;101545.97;5072900;28;20178;-68
2022/12/04 20:21:12;;;;;;;35.53;20.73;;;;;;;2.36;100.00;101543.00;5062883;28;20036;-69
2022/12/04 20:23:39;;;;;;;37.97;21.17;;;;;;;2.36;100.00;101543.00;5073946;28;20523;-70
2022/12/04 20:26:07;;;;;;;35.83;20.35;;;;;;;2.35;100.00;101541.28;5075687;28;20032;-69
2022/12/04 20:28:32;;;;;;;34.60;20.40;;;;;;;2.37;100.00;101549.97;5072901;28;20025;-70
2022/12/04 20:30:57;;;;;;;35.80;20.75;;;;;;;2.39;100.00;101542.69;5072893;28;20111;-70
2022/12/04 20:33:23;;;;;;;33.22;21.08;;;;;;;2.35;100.00;101544.78;5072854;28;20031;-70
2022/12/04 20:35:48;;;;;;;34.13;20.85;;;;;;;2.35;100.00;101551.97;5071828;28;20024;-70
2022/12/04 20:38:14;;;;;;;34.17;20.35;;;;;;;2.34;100.00;101542.28;5056052;28;20025;-70
2022/12/04 20:40:39;;;;;;;35.72;20.40;;;;;;;2.37;100.00;101544.66;5083061;28;20028;-70
2022/12/04 20:43:04;;;;;;;36.75;21.75;;;;;;;2.35;100.00;101544.78;5092993;28;20577;-70
2022/12/04 20:45:30;;;;;;;33.78;20.35;;;;;;;2.37;100.00;101548.19;5091308;28;20494;-70
2022/12/04 20:47:55;;;;;;;33.70;20.55;;;;;;;2.36;100.00;101543.81;5072690;28;20031;-70
2022/12/04 20:50:20;;;;;;;35.97;20.80;;;;;;;2.35;100.00;101541.28;5072572;28;20084;-70
2022/12/04 20:52:46;;;;;;;39.28;21.23;;;;;;;2.38;100.00;101551.69;5057892;28;20083;-70
2022/12/04 20:55:11;;;;;;;34.47;20.27;;;;;;;2.39;100.00;101542.69;5073073;28;20387;-70
2022/12/04 20:57:36;;;;;;;33.17;20.33;;;;;;;2.39;100.00;101548.03;5075541;28;20032;-70
2022/12/04 21:00:03;;;;;;;32.83;20.35;;;;;;;2.40;100.00;101553.22;5072611;28;20085;-70
2022/12/04 21:02:28;;;;;;;32.67;20.08;;;;;;;2.42;100.00;101553.88;5061300;28;20055;-69
2022/12/04 21:04:53;;;;;;;32.75;20.35;;;;;;;2.43;100.00;101555.56;5079015;28;20028;-71
2022/12/04 21:07:19;;;;;;;37.40;22.17;;;;;;;2.42;100.00;101553.88;5076344;28;20045;-70
2022/12/04 21:09:44;;;;;;;40.85;23.50;;;;;;;2.42;100.00;101553.88;5072461;28;20117;-70
2022/12/04 21:17:39;;;;;;;38.90;20.58;;;;;;;2.47;100.00;101556.91;5075067;28;20090;-70
2022/12/04 21:20:06;;;;;;;36.92;21.73;;;;;;;2.46;100.00;101554.41;5069762;28;20123;-69
2022/12/04 21:22:31;;;;;;;35.42;20.20;;;;;;;2.48;100.00;101563.13;5071928;28;20037;-68
2022/12/04 21:24:57;;;;;;;38.97;22.77;;;;;;;2.44;100.00;101559.06;5072047;28;20024;-68
2022/12/04 21:27:22;;;;;;;37.17;22.20;;;;;;;2.45;100.00;101555.41;5056626;28;20040;-69
2022/12/04 21:29:48;;;;;;;35.28;21.00;;;;;;;2.42;100.00;101553.88;5078494;28;20470;-70
2022/12/04 21:32:13;;;;;;;38.35;21.88;;;;;;;2.42;100.00;101553.88;5087758;28;20119;-70
2022/12/04 21:34:38;;;;;;;38.17;21.42;;;;;;;2.43;100.00;101554.72;5072141;28;20467;-69
2022/12/04 21:37:03;;;;;;;37.60;22.17;;;;;;;2.44;100.00;101557.22;5061039;28;20461;-70
2022/12/04 21:39:29;;;;;;;33.90;20.33;;;;;;;2.43;100.00;101552.03;5070813;28;20025;-70
2022/12/04 21:44:38;;;;;;;37.20;21.42;;;;;;;2.47;100.00;101556.09;5068018;28;20093;-68
2022/12/04 21:47:03;;;;;;;38.47;21.67;;;;;;;2.44;100.00;101553.72;5064768;28;20406;-69
2022/12/04 21:49:28;;;;;;;38.53;22.52;;;;;;;2.40;100.00;101553.22;5068023;28;20037;-68
2022/12/04 21:51:53;;;;;;;36.97;21.48;;;;;;;2.42;100.00;101553.06;5071917;28;20025;-69
2022/12/04 21:54:19;;;;;;;39.95;22.52;;;;;;;2.45;100.00;101550.06;5091027;28;20028;-68
2022/12/04 21:56:44;;;;;;;36.92;21.92;;;;;;;2.47;100.00;101551.56;5088671;28;20384;-69
2022/12/04 21:59:10;;;;;;;37.20;21.70;;;;;;;2.46;100.00;101541.91;5075744;28;20051;-69
2022/12/04 22:01:36;;;;;;;39.28;22.05;;;;;;;2.49;100.00;101551.41;5073193;28;20127;-68
2022/12/04 22:04:01;;;;;;;39.85;21.98;;;;;;;2.50;100.00;101545.09;5074346;28;20035;-69
2022/12/04 22:06:27;;;;;;;40.30;22.98;;;;;;;2.50;100.00;101553.09;5073821;28;20129;-68
2022/12/04 22:08:53;;;;;;;38.50;22.55;;;;;;;2.48;100.00;101547.91;5078577;28;20066;-69
2022/12/04 22:11:19;;;;;;;36.33;22.55;;;;;;;2.50;100.00;101555.78;5079627;28;20028;-70
2022/12/04 22:13:45;;;;;;;37.08;21.45;;;;;;;2.50;100.00;101545.09;5075223;28;20090;-69
2022/12/04 22:16:12;;;;;;;39.75;22.00;;;;;;;2.49;100.00;101551.41;5067319;28;20032;-68
2022/12/04 22:18:38;;;;;;;39.63;23.58;;;;;;;2.51;100.00;101557.47;5060551;28;20496;-68
2022/12/04 22:21:06;;;;;;;40.03;23.30;;;;;;;2.50;100.00;101555.78;5071413;28;20016;-68
2022/12/04 22:23:31;;;;;;;36.95;23.30;;;;;;;2.49;100.00;101554.09;5062560;28;20024;-68
2022/12/04 22:26:08;;;;;;;39.70;23.67;;;;;;;2.52;100.00;101559.16;5070580;28;20028;-68
2022/12/04 22:28:33;;;;;;;39.15;24.55;;;;;;;2.51;100.00;101557.47;5073506;28;20158;-69
2022/12/04 22:31:04;;;;;;;41.88;24.83;;;;;;;2.51;100.00;101556.59;5076074;28;20108;-70
2022/12/04 22:33:29;;;;;;;38.80;24.30;;;;;;;2.49;100.00;101556.75;5057228;28;20083;-68
2022/12/04 22:36:00;;;;;;;42.30;25.05;;;;;;;2.48;100.00;101555.09;5055179;28;20483;-67
2022/12/04 22:38:25;;;;;;;40.85;25.30;;;;;;;2.50;100.00;101565.63;5056154;28;20029;-68
2022/12/04 22:40:51;;;;;;;41.03;24.23;;;;;;;2.52;100.00;101559.16;5054969;28;20090;-67
2022/12/04 22:43:16;;;;;;;52.05;25.65;;;;;;;2.50;100.00;101563.78;5058285;28;20024;-68
2022/12/04 22:45:42;;;;;;;41.60;24.55;;;;;;;2.49;100.00;101559.44;5067954;28;20040;-68
2022/12/04 22:48:08;;;;;;;45.33;26.38;;;;;;;2.48;100.00;101555.09;5076033;28;20035;-68
2022/12/04 22:50:33;;;;;;;44.92;25.90;;;;;;;2.50;100.00;101557.63;5073965;28;20036;-68
2022/12/04 22:52:58;;;;;;;42.10;26.30;;;;;;;2.52;100.00;101556.47;5079734;28;20024;-68
2022/12/04 22:55:23;;;;;;;44.83;26.13;;;;;;;2.53;100.00;101557.31;5074377;28;20033;-68
2022/12/04 22:57:49;;;;;;;43.03;25.67;;;;;;;2.53;100.00;101550.13;5058617;28;20025;-69
2022/12/04 23:00:14;;;;;;;41.75;26.13;;;;;;;2.54;100.00;101559.81;5054687;28;20490;-69
2022/12/04 23:02:39;;;;;;;43.50;25.98;;;;;;;2.55;100.00;101564.19;5069708;28;20021;-69
2022/12/04 23:05:05;;;;;;;44.78;26.60;;;;;;;2.57;100.00;101562.19;5054557;28;20032;-69
2022/12/04 23:07:30;;;;;;;44.65;26.17;;;;;;;2.54;100.00;101551.81;5054349;28;20125;-69
2022/12/04 23:09:55;;;;;;;45.95;26.90;;;;;;;2.54;100.00;101565.16;5054787;28;20108;-69
2022/12/04 23:12:20;;;;;;;41.70;25.27;;;;;;;2.51;100.00;101567.28;5053642;28;20483;-69
2022/12/04 23:14:46;;;;;;;46.28;26.95;;;;;;;2.51;100.00;101568.16;5073439;28;20060;-69
2022/12/04 23:17:11;;;;;;;45.53;26.48;;;;;;;2.48;100.00;101557.78;5094619;28;20039;-69
2022/12/04 23:19:36;;;;;;;44.35;27.10;;;;;;;2.50;100.00;101554.94;5094288;28;20032;-69
2022/12/04 23:22:02;;;;;;;43.47;25.95;;;;;;;2.50;100.00;101555.78;5091137;28;20108;-69
2022/12/04 23:24:27;;;;;;;48.83;26.95;;;;;;;2.53;100.00;101555.47;5075286;28;20032;-69
2022/12/04 23:26:52;;;;;;;42.08;27.17;;;;;;;2.54;100.00;101559.81;5061902;28;20496;-68
2022/12/04 23:29:18;;;;;;;47.78;26.50;;;;;;;2.58;100.00;101555.88;5088849;28;20036;-69
2022/12/04 23:31:43;;;;;;;46.40;27.38;;;;;;;2.61;100.00;101552.88;5094179;28;20459;-69
2022/12/04 23:34:08;;;;;;;46.17;26.85;;;;;;;2.62;100.00;101554.53;5078289;28;20032;-69
2022/12/04 23:36:34;;;;;;;43.60;26.75;;;;;;;2.63;100.00;101556.22;5073753;28;20024;-69
2022/12/04 23:38:59;;;;;;;46.15;26.50;;;;;;;2.63;100.00;101545.53;5073961;28;20028;-69
2022/12/04 23:41:28;;;;;;;45.65;26.80;;;;;;;2.63;100.00;101550.88;5072637;28;20036;-69
2022/12/04 23:43:54;;;;;;;45.22;26.25;;;;;;;2.65;100.00;101554.22;5075591;28;20040;-69
2022/12/04 23:46:24;;;;;;;45.95;26.95;;;;;;;2.67;100.00;101551.38;5073443;28;20070;-69
2022/12/04 23:48:49;;;;;;;42.65;26.02;;;;;;;2.70;100.00;101555.59;5073798;28;20078;-69
2022/12/04 23:51:17;;;;;;;46.33;27.75;;;;;;;2.68;100.00;101560.28;5073246;28;20032;-68
2022/12/04 23:53:44;;;;;;;43.22;26.35;;;;;;;2.68;100.00;101557.59;5071454;28;20107;-69
2022/12/04 23:56:22;;;;;;;45.70;26.40;;;;;;;2.69;100.00;101549.44;5067683;28;20379;-69
2022/12/04 23:58:48;;;;;;;44.00;26.77;;;;;;;2.71;100.00;101551.94;5073555;28;20048;-69
